sensor_id;sensor_type;location;lat;lon;timestamp;P1;durP1;ratioP1;P2;durP2;ratioP2
32172;SDS011;18679;45.190;5.722;2024-01-11T00:00:57;27.35;;;12.02;;
32172;SDS011;18679;45.190;5.722;2024-01-11T00:03:59;29.75;;;12.32;;
32172;SDS011;18679;45.190;5.722;2024-01-11T00:07:00;34.75;;;14.10;;
32172;SDS011;18679;45.190;5.722;2024-01-11T00:10:02;30.75;;;13.10;;
32172;SDS011;18679;45.190;5.722;2024-01-11T00:13:03;30.13;;;12.82;;
32172;SDS011;18679;45.190;5.722;2024-01-11T00:16:05;31.50;;;12.60;;
32172;SDS011;18679;45.190;5.722;2024-01-11T00:19:06;36.55;;;14.02;;
32172;SDS011;18679;45.190;5.722;2024-01-11T00:22:06;35.38;;;13.32;;
32172;SDS011;18679;45.190;5.722;2024-01-11T00:25:07;28.60;;;12.35;;
32172;SDS011;18679;45.190;5.722;2024-01-11T00:28:08;25.70;;;11.18;;
32172;SDS011;18679;45.190;5.722;2024-01-11T00:31:11;27.50;;;10.88;;
32172;SDS011;18679;45.190;5.722;2024-01-11T00:34:12;33.78;;;13.52;;
32172;SDS011;18679;45.190;5.722;2024-01-11T00:37:16;30.90;;;12.48;;
32172;SDS011;18679;45.190;5.722;2024-01-11T00:40:17;29.65;;;12.32;;
32172;SDS011;18679;45.190;5.722;2024-01-11T00:43:25;27.83;;;11.65;;
32172;SDS011;18679;45.190;5.722;2024-01-11T00:46:27;30.02;;;13.23;;
32172;SDS011;18679;45.190;5.722;2024-01-11T00:49:28;26.85;;;10.70;;
32172;SDS011;18679;45.190;5.722;2024-01-11T00:52:29;32.25;;;11.63;;
32172;SDS011;18679;45.190;5.722;2024-01-11T00:55:30;34.65;;;13.90;;
32172;SDS011;18679;45.190;5.722;2024-01-11T00:58:31;23.63;;;10.02;;
32172;SDS011;18679;45.190;5.722;2024-01-11T01:01:32;27.13;;;12.40;;
32172;SDS011;18679;45.190;5.722;2024-01-11T01:04:33;31.73;;;13.15;;
32172;SDS011;18679;45.190;5.722;2024-01-11T01:07:37;32.22;;;11.77;;
32172;SDS011;18679;45.190;5.722;2024-01-11T01:10:38;36.20;;;14.20;;
32172;SDS011;18679;45.190;5.722;2024-01-11T01:13:39;30.05;;;12.27;;
32172;SDS011;18679;45.190;5.722;2024-01-11T01:16:40;27.30;;;12.00;;
32172;SDS011;18679;45.190;5.722;2024-01-11T01:19:43;31.33;;;12.80;;
32172;SDS011;18679;45.190;5.722;2024-01-11T01:22:44;22.00;;;11.10;;
32172;SDS011;18679;45.190;5.722;2024-01-11T01:25:47;49.33;;;11.43;;
32172;SDS011;18679;45.190;5.722;2024-01-11T01:28:48;30.33;;;11.02;;
32172;SDS011;18679;45.190;5.722;2024-01-11T01:31:49;37.83;;;13.75;;
32172;SDS011;18679;45.190;5.722;2024-01-11T01:34:53;28.73;;;12.45;;
32172;SDS011;18679;45.190;5.722;2024-01-11T01:37:53;31.13;;;10.35;;
32172;SDS011;18679;45.190;5.722;2024-01-11T01:40:55;31.88;;;12.90;;
32172;SDS011;18679;45.190;5.722;2024-01-11T01:43:56;27.77;;;11.63;;
32172;SDS011;18679;45.190;5.722;2024-01-11T01:46:57;28.45;;;11.88;;
32172;SDS011;18679;45.190;5.722;2024-01-11T01:49:58;29.40;;;11.18;;
32172;SDS011;18679;45.190;5.722;2024-01-11T01:52:59;29.52;;;11.57;;
32172;SDS011;18679;45.190;5.722;2024-01-11T01:56:01;29.70;;;11.32;;
32172;SDS011;18679;45.190;5.722;2024-01-11T01:59:03;28.77;;;11.35;;
32172;SDS011;18679;45.190;5.722;2024-01-11T02:02:05;38.88;;;12.85;;
32172;SDS011;18679;45.190;5.722;2024-01-11T02:05:07;19.88;;;10.13;;
32172;SDS011;18679;45.190;5.722;2024-01-11T02:08:15;27.83;;;13.10;;
32172;SDS011;18679;45.190;5.722;2024-01-11T02:11:17;23.90;;;12.55;;
32172;SDS011;18679;45.190;5.722;2024-01-11T02:14:21;29.65;;;11.20;;
32172;SDS011;18679;45.190;5.722;2024-01-11T02:17:22;29.98;;;10.18;;
32172;SDS011;18679;45.190;5.722;2024-01-11T02:20:23;33.10;;;12.35;;
32172;SDS011;18679;45.190;5.722;2024-01-11T02:23:25;26.25;;;12.15;;
32172;SDS011;18679;45.190;5.722;2024-01-11T02:26:27;36.30;;;12.80;;
32172;SDS011;18679;45.190;5.722;2024-01-11T02:29:29;32.28;;;12.85;;
32172;SDS011;18679;45.190;5.722;2024-01-11T02:32:31;33.35;;;12.13;;
32172;SDS011;18679;45.190;5.722;2024-01-11T02:35:31;29.80;;;13.63;;
32172;SDS011;18679;45.190;5.722;2024-01-11T02:38:34;32.55;;;11.60;;
32172;SDS011;18679;45.190;5.722;2024-01-11T02:41:36;30.38;;;12.10;;
32172;SDS011;18679;45.190;5.722;2024-01-11T02:44:39;30.02;;;11.88;;
32172;SDS011;18679;45.190;5.722;2024-01-11T02:47:40;30.67;;;11.57;;
32172;SDS011;18679;45.190;5.722;2024-01-11T02:50:41;30.13;;;11.98;;
32172;SDS011;18679;45.190;5.722;2024-01-11T02:53:42;33.33;;;12.50;;
32172;SDS011;18679;45.190;5.722;2024-01-11T02:56:43;29.40;;;12.73;;
32172;SDS011;18679;45.190;5.722;2024-01-11T02:59:44;30.83;;;12.02;;
32172;SDS011;18679;45.190;5.722;2024-01-11T03:02:46;32.22;;;12.18;;
32172;SDS011;18679;45.190;5.722;2024-01-11T03:05:47;31.58;;;10.35;;
32172;SDS011;18679;45.190;5.722;2024-01-11T03:08:49;28.42;;;10.65;;
32172;SDS011;18679;45.190;5.722;2024-01-11T03:11:50;30.42;;;11.30;;
32172;SDS011;18679;45.190;5.722;2024-01-11T03:14:51;25.73;;;12.68;;
32172;SDS011;18679;45.190;5.722;2024-01-11T03:17:52;26.17;;;11.25;;
32172;SDS011;18679;45.190;5.722;2024-01-11T03:20:53;23.27;;;11.65;;
32172;SDS011;18679;45.190;5.722;2024-01-11T03:23:54;27.25;;;12.15;;
32172;SDS011;18679;45.190;5.722;2024-01-11T03:26:56;30.38;;;13.38;;
32172;SDS011;18679;45.190;5.722;2024-01-11T03:29:58;30.65;;;11.73;;
32172;SDS011;18679;45.190;5.722;2024-01-11T03:32:58;29.25;;;11.77;;
32172;SDS011;18679;45.190;5.722;2024-01-11T03:35:59;33.58;;;11.05;;
32172;SDS011;18679;45.190;5.722;2024-01-11T03:39:06;27.05;;;11.20;;
32172;SDS011;18679;45.190;5.722;2024-01-11T03:42:07;27.52;;;10.93;;
32172;SDS011;18679;45.190;5.722;2024-01-11T03:45:08;25.30;;;11.40;;
32172;SDS011;18679;45.190;5.722;2024-01-11T03:48:09;27.38;;;13.70;;
32172;SDS011;18679;45.190;5.722;2024-01-11T03:51:10;29.73;;;11.90;;
32172;SDS011;18679;45.190;5.722;2024-01-11T03:54:12;27.35;;;11.52;;
32172;SDS011;18679;45.190;5.722;2024-01-11T03:57:13;32.30;;;13.85;;
32172;SDS011;18679;45.190;5.722;2024-01-11T04:00:14;17.52;;;9.20;;
32172;SDS011;18679;45.190;5.722;2024-01-11T04:03:16;28.75;;;12.68;;
32172;SDS011;18679;45.190;5.722;2024-01-11T04:06:21;27.52;;;11.68;;
32172;SDS011;18679;45.190;5.722;2024-01-11T04:09:24;21.23;;;9.55;;
32172;SDS011;18679;45.190;5.722;2024-01-11T04:12:25;27.45;;;10.43;;
32172;SDS011;18679;45.190;5.722;2024-01-11T04:15:26;28.88;;;10.57;;
32172;SDS011;18679;45.190;5.722;2024-01-11T04:18:27;28.75;;;11.55;;
32172;SDS011;18679;45.190;5.722;2024-01-11T04:21:28;31.73;;;12.50;;
32172;SDS011;18679;45.190;5.722;2024-01-11T04:24:30;23.50;;;9.05;;
32172;SDS011;18679;45.190;5.722;2024-01-11T04:27:32;40.22;;;13.80;;
32172;SDS011;18679;45.190;5.722;2024-01-11T04:30:33;33.80;;;12.50;;
32172;SDS011;18679;45.190;5.722;2024-01-11T04:33:34;40.83;;;13.55;;
32172;SDS011;18679;45.190;5.722;2024-01-11T04:36:37;30.20;;;11.85;;
32172;SDS011;18679;45.190;5.722;2024-01-11T04:39:40;33.22;;;12.93;;
32172;SDS011;18679;45.190;5.722;2024-01-11T04:42:42;23.42;;;11.38;;
32172;SDS011;18679;45.190;5.722;2024-01-11T04:45:44;34.85;;;13.50;;
32172;SDS011;18679;45.190;5.722;2024-01-11T04:48:45;30.58;;;12.30;;
32172;SDS011;18679;45.190;5.722;2024-01-11T04:51:46;30.33;;;10.65;;
32172;SDS011;18679;45.190;5.722;2024-01-11T04:54:47;20.92;;;11.20;;
32172;SDS011;18679;45.190;5.722;2024-01-11T04:57:48;29.90;;;11.23;;
32172;SDS011;18679;45.190;5.722;2024-01-11T05:00:49;23.52;;;10.93;;
32172;SDS011;18679;45.190;5.722;2024-01-11T05:03:50;22.20;;;10.82;;
32172;SDS011;18679;45.190;5.722;2024-01-11T05:06:51;27.38;;;11.73;;
32172;SDS011;18679;45.190;5.722;2024-01-11T05:09:52;30.80;;;12.35;;
32172;SDS011;18679;45.190;5.722;2024-01-11T05:12:53;26.75;;;10.32;;
32172;SDS011;18679;45.190;5.722;2024-01-11T05:15:56;34.47;;;13.93;;
32172;SDS011;18679;45.190;5.722;2024-01-11T05:18:59;30.90;;;12.50;;
32172;SDS011;18679;45.190;5.722;2024-01-11T05:22:02;28.92;;;12.73;;
32172;SDS011;18679;45.190;5.722;2024-01-11T05:25:04;28.33;;;11.20;;
32172;SDS011;18679;45.190;5.722;2024-01-11T05:28:05;29.35;;;12.98;;
32172;SDS011;18679;45.190;5.722;2024-01-11T05:31:10;26.05;;;11.32;;
32172;SDS011;18679;45.190;5.722;2024-01-11T05:34:12;24.98;;;10.73;;
32172;SDS011;18679;45.190;5.722;2024-01-11T05:37:13;26.02;;;11.77;;
32172;SDS011;18679;45.190;5.722;2024-01-11T05:40:14;25.75;;;11.40;;
32172;SDS011;18679;45.190;5.722;2024-01-11T05:43:17;27.15;;;9.60;;
32172;SDS011;18679;45.190;5.722;2024-01-11T05:46:18;28.38;;;10.93;;
32172;SDS011;18679;45.190;5.722;2024-01-11T05:49:19;39.42;;;13.63;;
32172;SDS011;18679;45.190;5.722;2024-01-11T05:52:22;29.88;;;11.55;;
32172;SDS011;18679;45.190;5.722;2024-01-11T05:55:25;33.63;;;12.48;;
32172;SDS011;18679;45.190;5.722;2024-01-11T05:58:25;29.38;;;11.65;;
32172;SDS011;18679;45.190;5.722;2024-01-11T06:01:27;30.95;;;12.93;;
32172;SDS011;18679;45.190;5.722;2024-01-11T06:04:27;25.58;;;9.57;;
32172;SDS011;18679;45.190;5.722;2024-01-11T06:07:29;23.45;;;11.18;;
32172;SDS011;18679;45.190;5.722;2024-01-11T06:10:34;26.88;;;12.63;;
32172;SDS011;18679;45.190;5.722;2024-01-11T06:13:35;28.55;;;11.88;;
32172;SDS011;18679;45.190;5.722;2024-01-11T06:16:37;35.33;;;12.70;;
32172;SDS011;18679;45.190;5.722;2024-01-11T06:19:38;25.92;;;9.88;;
32172;SDS011;18679;45.190;5.722;2024-01-11T06:22:40;25.05;;;10.25;;
32172;SDS011;18679;45.190;5.722;2024-01-11T06:25:43;25.83;;;10.93;;
32172;SDS011;18679;45.190;5.722;2024-01-11T06:28:46;25.92;;;10.52;;
32172;SDS011;18679;45.190;5.722;2024-01-11T06:31:47;18.20;;;10.00;;
32172;SDS011;18679;45.190;5.722;2024-01-11T06:34:48;28.13;;;11.52;;
32172;SDS011;18679;45.190;5.722;2024-01-11T06:37:52;20.77;;;10.73;;
32172;SDS011;18679;45.190;5.722;2024-01-11T06:40:54;25.38;;;10.07;;
32172;SDS011;18679;45.190;5.722;2024-01-11T06:43:55;23.30;;;10.13;;
32172;SDS011;18679;45.190;5.722;2024-01-11T06:46:56;25.85;;;10.98;;
32172;SDS011;18679;45.190;5.722;2024-01-11T06:49:57;31.77;;;10.35;;
32172;SDS011;18679;45.190;5.722;2024-01-11T06:52:58;25.55;;;10.60;;
32172;SDS011;18679;45.190;5.722;2024-01-11T06:56:00;25.60;;;11.32;;
32172;SDS011;18679;45.190;5.722;2024-01-11T06:59:03;22.77;;;10.35;;
32172;SDS011;18679;45.190;5.722;2024-01-11T07:02:04;22.65;;;11.40;;
32172;SDS011;18679;45.190;5.722;2024-01-11T07:05:06;28.60;;;11.68;;
32172;SDS011;18679;45.190;5.722;2024-01-11T07:08:09;25.10;;;10.85;;
32172;SDS011;18679;45.190;5.722;2024-01-11T07:11:12;26.85;;;10.85;;
32172;SDS011;18679;45.190;5.722;2024-01-11T07:14:13;30.48;;;10.63;;
32172;SDS011;18679;45.190;5.722;2024-01-11T07:17:14;29.80;;;11.60;;
32172;SDS011;18679;45.190;5.722;2024-01-11T07:20:15;30.65;;;9.35;;
32172;SDS011;18679;45.190;5.722;2024-01-11T07:23:17;26.05;;;9.93;;
32172;SDS011;18679;45.190;5.722;2024-01-11T07:26:18;27.00;;;11.88;;
32172;SDS011;18679;45.190;5.722;2024-01-11T07:29:19;20.27;;;9.73;;
32172;SDS011;18679;45.190;5.722;2024-01-11T07:32:19;23.02;;;8.27;;
32172;SDS011;18679;45.190;5.722;2024-01-11T07:35:20;34.75;;;12.00;;
32172;SDS011;18679;45.190;5.722;2024-01-11T07:38:23;25.23;;;10.98;;
32172;SDS011;18679;45.190;5.722;2024-01-11T07:41:24;26.10;;;10.75;;
32172;SDS011;18679;45.190;5.722;2024-01-11T07:44:25;22.17;;;9.88;;
32172;SDS011;18679;45.190;5.722;2024-01-11T07:47:26;24.88;;;10.32;;
32172;SDS011;18679;45.190;5.722;2024-01-11T07:50:29;28.05;;;9.98;;
32172;SDS011;18679;45.190;5.722;2024-01-11T07:53:31;21.55;;;8.23;;
32172;SDS011;18679;45.190;5.722;2024-01-11T07:56:32;22.73;;;9.40;;
32172;SDS011;18679;45.190;5.722;2024-01-11T07:59:35;29.08;;;9.60;;
32172;SDS011;18679;45.190;5.722;2024-01-11T08:02:36;24.52;;;10.35;;
32172;SDS011;18679;45.190;5.722;2024-01-11T08:05:38;26.67;;;10.38;;
32172;SDS011;18679;45.190;5.722;2024-01-11T08:08:40;22.45;;;10.02;;
32172;SDS011;18679;45.190;5.722;2024-01-11T08:11:41;27.23;;;9.13;;
32172;SDS011;18679;45.190;5.722;2024-01-11T08:14:42;26.83;;;8.80;;
32172;SDS011;18679;45.190;5.722;2024-01-11T08:17:43;27.02;;;9.68;;
32172;SDS011;18679;45.190;5.722;2024-01-11T08:20:45;30.85;;;10.50;;
32172;SDS011;18679;45.190;5.722;2024-01-11T08:23:46;23.45;;;7.82;;
32172;SDS011;18679;45.190;5.722;2024-01-11T08:26:49;19.88;;;8.32;;
32172;SDS011;18679;45.190;5.722;2024-01-11T08:29:51;25.08;;;8.85;;
32172;SDS011;18679;45.190;5.722;2024-01-11T08:32:53;36.65;;;10.60;;
32172;SDS011;18679;45.190;5.722;2024-01-11T08:35:55;20.33;;;9.52;;
32172;SDS011;18679;45.190;5.722;2024-01-11T08:39:04;24.10;;;8.68;;
32172;SDS011;18679;45.190;5.722;2024-01-11T08:42:09;34.53;;;10.32;;
32172;SDS011;18679;45.190;5.722;2024-01-11T08:45:10;27.73;;;10.55;;
32172;SDS011;18679;45.190;5.722;2024-01-11T08:48:17;28.48;;;10.23;;
32172;SDS011;18679;45.190;5.722;2024-01-11T08:51:18;28.55;;;10.40;;
32172;SDS011;18679;45.190;5.722;2024-01-11T08:54:19;21.35;;;9.15;;
32172;SDS011;18679;45.190;5.722;2024-01-11T08:57:21;27.75;;;11.07;;
32172;SDS011;18679;45.190;5.722;2024-01-11T09:00:22;25.67;;;9.82;;
32172;SDS011;18679;45.190;5.722;2024-01-11T09:03:23;28.13;;;10.15;;
32172;SDS011;18679;45.190;5.722;2024-01-11T09:06:24;25.67;;;11.45;;
32172;SDS011;18679;45.190;5.722;2024-01-11T09:09:26;32.33;;;9.85;;
32172;SDS011;18679;45.190;5.722;2024-01-11T09:12:27;19.65;;;8.93;;
32172;SDS011;18679;45.190;5.722;2024-01-11T09:15:28;25.90;;;9.05;;
32172;SDS011;18679;45.190;5.722;2024-01-11T09:18:31;30.38;;;11.77;;
32172;SDS011;18679;45.190;5.722;2024-01-11T09:21:31;27.27;;;10.40;;
32172;SDS011;18679;45.190;5.722;2024-01-11T09:24:33;33.78;;;11.55;;
32172;SDS011;18679;45.190;5.722;2024-01-11T09:27:34;28.52;;;10.13;;
32172;SDS011;18679;45.190;5.722;2024-01-11T09:30:35;25.00;;;10.18;;
32172;SDS011;18679;45.190;5.722;2024-01-11T09:33:36;29.00;;;7.78;;
32172;SDS011;18679;45.190;5.722;2024-01-11T09:36:39;20.92;;;8.95;;
32172;SDS011;18679;45.190;5.722;2024-01-11T09:39:40;25.60;;;10.30;;
32172;SDS011;18679;45.190;5.722;2024-01-11T09:42:41;27.65;;;10.70;;
32172;SDS011;18679;45.190;5.722;2024-01-11T09:45:45;30.05;;;11.43;;
32172;SDS011;18679;45.190;5.722;2024-01-11T09:48:50;22.02;;;8.57;;
32172;SDS011;18679;45.190;5.722;2024-01-11T09:51:53;27.45;;;10.20;;
32172;SDS011;18679;45.190;5.722;2024-01-11T09:54:57;23.15;;;9.88;;
32172;SDS011;18679;45.190;5.722;2024-01-11T09:58:01;24.52;;;9.23;;
32172;SDS011;18679;45.190;5.722;2024-01-11T10:01:09;27.85;;;10.45;;
32172;SDS011;18679;45.190;5.722;2024-01-11T10:04:12;30.70;;;10.07;;
32172;SDS011;18679;45.190;5.722;2024-01-11T10:07:15;29.60;;;9.70;;
32172;SDS011;18679;45.190;5.722;2024-01-11T10:10:20;21.45;;;9.52;;
32172;SDS011;18679;45.190;5.722;2024-01-11T10:13:28;22.58;;;8.75;;
32172;SDS011;18679;45.190;5.722;2024-01-11T10:16:32;27.23;;;9.73;;
32172;SDS011;18679;45.190;5.722;2024-01-11T10:19:33;32.60;;;11.80;;
32172;SDS011;18679;45.190;5.722;2024-01-11T10:22:35;26.17;;;9.48;;
32172;SDS011;18679;45.190;5.722;2024-01-11T10:25:37;29.10;;;11.15;;
32172;SDS011;18679;45.190;5.722;2024-01-11T10:28:38;24.35;;;10.82;;
32172;SDS011;18679;45.190;5.722;2024-01-11T10:31:39;29.63;;;11.30;;
32172;SDS011;18679;45.190;5.722;2024-01-11T10:34:40;27.58;;;10.38;;
32172;SDS011;18679;45.190;5.722;2024-01-11T10:37:43;25.65;;;9.35;;
32172;SDS011;18679;45.190;5.722;2024-01-11T10:40:45;23.48;;;9.82;;
32172;SDS011;18679;45.190;5.722;2024-01-11T10:43:46;22.92;;;9.65;;
32172;SDS011;18679;45.190;5.722;2024-01-11T10:46:50;27.40;;;11.43;;
32172;SDS011;18679;45.190;5.722;2024-01-11T10:49:53;28.83;;;11.05;;
32172;SDS011;18679;45.190;5.722;2024-01-11T10:53:12;25.55;;;9.43;;
32172;SDS011;18679;45.190;5.722;2024-01-11T10:56:21;32.88;;;11.32;;
32172;SDS011;18679;45.190;5.722;2024-01-11T10:59:23;35.72;;;10.45;;
32172;SDS011;18679;45.190;5.722;2024-01-11T11:02:25;29.30;;;10.05;;
32172;SDS011;18679;45.190;5.722;2024-01-11T11:05:29;22.83;;;8.60;;
32172;SDS011;18679;45.190;5.722;2024-01-11T11:08:31;20.60;;;8.25;;
32172;SDS011;18679;45.190;5.722;2024-01-11T11:11:36;22.48;;;9.70;;
32172;SDS011;18679;45.190;5.722;2024-01-11T11:14:40;19.52;;;8.82;;
32172;SDS011;18679;45.190;5.722;2024-01-11T11:17:44;24.92;;;9.75;;
32172;SDS011;18679;45.190;5.722;2024-01-11T11:20:46;27.02;;;10.30;;
32172;SDS011;18679;45.190;5.722;2024-01-11T11:23:48;29.80;;;9.52;;
32172;SDS011;18679;45.190;5.722;2024-01-11T11:26:50;30.60;;;10.30;;
32172;SDS011;18679;45.190;5.722;2024-01-11T11:29:50;26.85;;;9.93;;
32172;SDS011;18679;45.190;5.722;2024-01-11T11:32:53;23.27;;;9.40;;
32172;SDS011;18679;45.190;5.722;2024-01-11T11:35:57;30.05;;;12.95;;
32172;SDS011;18679;45.190;5.722;2024-01-11T11:38:59;34.25;;;10.68;;
32172;SDS011;18679;45.190;5.722;2024-01-11T11:42:02;30.05;;;10.30;;
32172;SDS011;18679;45.190;5.722;2024-01-11T11:45:04;24.85;;;9.93;;
32172;SDS011;18679;45.190;5.722;2024-01-11T11:51:32;31.67;;;9.55;;
32172;SDS011;18679;45.190;5.722;2024-01-11T11:54:33;25.88;;;9.75;;
32172;SDS011;18679;45.190;5.722;2024-01-11T11:57:35;20.67;;;8.75;;
32172;SDS011;18679;45.190;5.722;2024-01-11T12:00:37;20.15;;;8.93;;
32172;SDS011;18679;45.190;5.722;2024-01-11T12:03:40;21.95;;;9.40;;
32172;SDS011;18679;45.190;5.722;2024-01-11T12:06:41;30.20;;;9.45;;
32172;SDS011;18679;45.190;5.722;2024-01-11T12:09:46;28.25;;;9.60;;
32172;SDS011;18679;45.190;5.722;2024-01-11T12:12:47;23.27;;;9.27;;
32172;SDS011;18679;45.190;5.722;2024-01-11T12:15:50;30.60;;;9.15;;
32172;SDS011;18679;45.190;5.722;2024-01-11T12:18:51;23.27;;;7.88;;
32172;SDS011;18679;45.190;5.722;2024-01-11T12:21:53;26.13;;;8.23;;
32172;SDS011;18679;45.190;5.722;2024-01-11T12:24:56;23.17;;;7.93;;
32172;SDS011;18679;45.190;5.722;2024-01-11T12:27:57;21.38;;;8.00;;
32172;SDS011;18679;45.190;5.722;2024-01-11T12:30:59;23.50;;;7.93;;
32172;SDS011;18679;45.190;5.722;2024-01-11T12:34:01;20.85;;;9.20;;
32172;SDS011;18679;45.190;5.722;2024-01-11T12:37:05;23.30;;;7.95;;
32172;SDS011;18679;45.190;5.722;2024-01-11T12:40:06;26.17;;;7.63;;
32172;SDS011;18679;45.190;5.722;2024-01-11T12:43:11;21.98;;;7.82;;
32172;SDS011;18679;45.190;5.722;2024-01-11T12:46:12;19.33;;;7.32;;
32172;SDS011;18679;45.190;5.722;2024-01-11T12:49:14;18.90;;;7.38;;
32172;SDS011;18679;45.190;5.722;2024-01-11T12:52:17;20.92;;;7.80;;
32172;SDS011;18679;45.190;5.722;2024-01-11T12:55:18;22.13;;;7.72;;
32172;SDS011;18679;45.190;5.722;2024-01-11T12:58:20;22.55;;;8.55;;
32172;SDS011;18679;45.190;5.722;2024-01-11T13:01:22;30.85;;;10.15;;
32172;SDS011;18679;45.190;5.722;2024-01-11T13:04:24;20.23;;;7.60;;
32172;SDS011;18679;45.190;5.722;2024-01-11T13:07:25;22.92;;;6.90;;
32172;SDS011;18679;45.190;5.722;2024-01-11T13:10:26;20.95;;;8.50;;
32172;SDS011;18679;45.190;5.722;2024-01-11T13:13:29;25.13;;;7.97;;
32172;SDS011;18679;45.190;5.722;2024-01-11T13:16:30;18.95;;;8.65;;
32172;SDS011;18679;45.190;5.722;2024-01-11T13:19:31;25.67;;;9.13;;
32172;SDS011;18679;45.190;5.722;2024-01-11T13:22:32;15.93;;;7.05;;
32172;SDS011;18679;45.190;5.722;2024-01-11T13:25:32;20.00;;;6.82;;
32172;SDS011;18679;45.190;5.722;2024-01-11T13:28:33;17.42;;;7.10;;
32172;SDS011;18679;45.190;5.722;2024-01-11T13:31:34;20.95;;;7.78;;
32172;SDS011;18679;45.190;5.722;2024-01-11T13:34:35;21.65;;;7.78;;
32172;SDS011;18679;45.190;5.722;2024-01-11T13:37:37;23.05;;;8.43;;
32172;SDS011;18679;45.190;5.722;2024-01-11T13:40:39;24.05;;;9.27;;
32172;SDS011;18679;45.190;5.722;2024-01-11T13:43:40;22.40;;;6.55;;
32172;SDS011;18679;45.190;5.722;2024-01-11T13:46:41;16.73;;;7.30;;
32172;SDS011;18679;45.190;5.722;2024-01-11T13:49:45;13.32;;;6.22;;
32172;SDS011;18679;45.190;5.722;2024-01-11T13:52:46;25.95;;;7.60;;
32172;SDS011;18679;45.190;5.722;2024-01-11T13:55:48;16.58;;;7.07;;
32172;SDS011;18679;45.190;5.722;2024-01-11T13:58:50;17.42;;;7.25;;
32172;SDS011;18679;45.190;5.722;2024-01-11T14:01:50;18.08;;;7.18;;
32172;SDS011;18679;45.190;5.722;2024-01-11T14:04:52;15.65;;;6.72;;
32172;SDS011;18679;45.190;5.722;2024-01-11T14:07:53;22.08;;;6.78;;
32172;SDS011;18679;45.190;5.722;2024-01-11T14:10:59;15.25;;;7.45;;
32172;SDS011;18679;45.190;5.722;2024-01-11T14:14:03;24.15;;;7.53;;
32172;SDS011;18679;45.190;5.722;2024-01-11T14:17:04;23.95;;;8.57;;
32172;SDS011;18679;45.190;5.722;2024-01-11T14:20:05;23.52;;;7.90;;
32172;SDS011;18679;45.190;5.722;2024-01-11T14:23:11;14.18;;;6.22;;
32172;SDS011;18679;45.190;5.722;2024-01-11T14:26:13;14.90;;;6.43;;
32172;SDS011;18679;45.190;5.722;2024-01-11T14:29:13;19.02;;;5.78;;
32172;SDS011;18679;45.190;5.722;2024-01-11T14:32:15;27.67;;;8.10;;
32172;SDS011;18679;45.190;5.722;2024-01-11T14:35:16;18.60;;;7.55;;
32172;SDS011;18679;45.190;5.722;2024-01-11T14:38:18;22.88;;;8.50;;
32172;SDS011;18679;45.190;5.722;2024-01-11T14:41:20;11.52;;;5.72;;
32172;SDS011;18679;45.190;5.722;2024-01-11T14:44:21;19.55;;;8.45;;
32172;SDS011;18679;45.190;5.722;2024-01-11T14:47:22;14.65;;;6.95;;
32172;SDS011;18679;45.190;5.722;2024-01-11T14:50:24;13.43;;;6.28;;
32172;SDS011;18679;45.190;5.722;2024-01-11T14:53:24;13.35;;;5.57;;
32172;SDS011;18679;45.190;5.722;2024-01-11T14:56:25;17.30;;;7.07;;
32172;SDS011;18679;45.190;5.722;2024-01-11T14:59:26;18.40;;;6.95;;
32172;SDS011;18679;45.190;5.722;2024-01-11T15:02:27;22.20;;;7.32;;
32172;SDS011;18679;45.190;5.722;2024-01-11T15:05:29;17.58;;;7.03;;
32172;SDS011;18679;45.190;5.722;2024-01-11T15:08:32;22.58;;;7.47;;
32172;SDS011;18679;45.190;5.722;2024-01-11T15:11:33;19.00;;;7.13;;
32172;SDS011;18679;45.190;5.722;2024-01-11T15:14:37;19.67;;;7.45;;
32172;SDS011;18679;45.190;5.722;2024-01-11T15:17:38;21.90;;;6.72;;
32172;SDS011;18679;45.190;5.722;2024-01-11T15:20:40;16.02;;;7.40;;
32172;SDS011;18679;45.190;5.722;2024-01-11T15:23:42;20.92;;;8.75;;
32172;SDS011;18679;45.190;5.722;2024-01-11T15:26:43;17.02;;;7.50;;
32172;SDS011;18679;45.190;5.722;2024-01-11T15:29:44;15.70;;;7.85;;
32172;SDS011;18679;45.190;5.722;2024-01-11T15:32:45;13.52;;;6.93;;
32172;SDS011;18679;45.190;5.722;2024-01-11T15:35:46;12.15;;;6.32;;
32172;SDS011;18679;45.190;5.722;2024-01-11T15:38:49;17.10;;;7.90;;
32172;SDS011;18679;45.190;5.722;2024-01-11T15:41:50;20.63;;;7.63;;
32172;SDS011;18679;45.190;5.722;2024-01-11T15:44:51;21.92;;;8.38;;
32172;SDS011;18679;45.190;5.722;2024-01-11T15:47:54;25.98;;;6.88;;
32172;SDS011;18679;45.190;5.722;2024-01-11T15:50:55;20.58;;;7.47;;
32172;SDS011;18679;45.190;5.722;2024-01-11T15:53:58;20.27;;;6.10;;
32172;SDS011;18679;45.190;5.722;2024-01-11T15:56:59;25.55;;;7.70;;
32172;SDS011;18679;45.190;5.722;2024-01-11T16:00:00;22.27;;;8.80;;
32172;SDS011;18679;45.190;5.722;2024-01-11T16:03:00;20.85;;;8.80;;
32172;SDS011;18679;45.190;5.722;2024-01-11T16:06:04;23.98;;;5.97;;
32172;SDS011;18679;45.190;5.722;2024-01-11T16:09:06;24.85;;;7.88;;
32172;SDS011;18679;45.190;5.722;2024-01-11T16:12:11;23.23;;;7.05;;
32172;SDS011;18679;45.190;5.722;2024-01-11T16:15:13;20.73;;;6.00;;
32172;SDS011;18679;45.190;5.722;2024-01-11T16:18:16;25.17;;;9.45;;
32172;SDS011;18679;45.190;5.722;2024-01-11T16:21:17;29.10;;;7.93;;
32172;SDS011;18679;45.190;5.722;2024-01-11T16:24:22;21.63;;;8.25;;
32172;SDS011;18679;45.190;5.722;2024-01-11T16:27:27;16.02;;;7.40;;
32172;SDS011;18679;45.190;5.722;2024-01-11T16:30:28;14.23;;;6.80;;
32172;SDS011;18679;45.190;5.722;2024-01-11T16:33:30;24.77;;;8.30;;
32172;SDS011;18679;45.190;5.722;2024-01-11T16:36:35;18.55;;;6.85;;
32172;SDS011;18679;45.190;5.722;2024-01-11T16:39:36;18.92;;;7.30;;
32172;SDS011;18679;45.190;5.722;2024-01-11T16:42:40;20.42;;;9.02;;
32172;SDS011;18679;45.190;5.722;2024-01-11T16:45:41;26.67;;;8.77;;
32172;SDS011;18679;45.190;5.722;2024-01-11T16:48:42;18.85;;;7.28;;
32172;SDS011;18679;45.190;5.722;2024-01-11T16:51:44;22.67;;;8.45;;
32172;SDS011;18679;45.190;5.722;2024-01-11T16:54:47;30.33;;;8.02;;
32172;SDS011;18679;45.190;5.722;2024-01-11T16:57:48;21.35;;;8.35;;
32172;SDS011;18679;45.190;5.722;2024-01-11T17:00:51;19.10;;;7.97;;
32172;SDS011;18679;45.190;5.722;2024-01-11T17:03:53;19.15;;;7.93;;
32172;SDS011;18679;45.190;5.722;2024-01-11T17:06:54;19.10;;;7.72;;
32172;SDS011;18679;45.190;5.722;2024-01-11T17:09:56;28.25;;;9.60;;
32172;SDS011;18679;45.190;5.722;2024-01-11T17:12:57;32.65;;;11.05;;
32172;SDS011;18679;45.190;5.722;2024-01-11T17:15:58;25.25;;;9.82;;
32172;SDS011;18679;45.190;5.722;2024-01-11T17:18:59;17.10;;;7.45;;
32172;SDS011;18679;45.190;5.722;2024-01-11T17:22:00;27.85;;;10.45;;
32172;SDS011;18679;45.190;5.722;2024-01-11T17:25:02;28.67;;;8.55;;
32172;SDS011;18679;45.190;5.722;2024-01-11T17:28:03;34.05;;;12.07;;
32172;SDS011;18679;45.190;5.722;2024-01-11T17:31:09;21.77;;;8.43;;
32172;SDS011;18679;45.190;5.722;2024-01-11T17:34:13;26.23;;;9.02;;
32172;SDS011;18679;45.190;5.722;2024-01-11T17:37:14;21.13;;;8.98;;
32172;SDS011;18679;45.190;5.722;2024-01-11T17:40:15;16.65;;;8.05;;
32172;SDS011;18679;45.190;5.722;2024-01-11T17:43:16;23.00;;;9.30;;
32172;SDS011;18679;45.190;5.722;2024-01-11T17:46:23;26.80;;;8.65;;
32172;SDS011;18679;45.190;5.722;2024-01-11T17:49:24;25.73;;;8.38;;
32172;SDS011;18679;45.190;5.722;2024-01-11T17:52:26;21.35;;;7.55;;
32172;SDS011;18679;45.190;5.722;2024-01-11T17:55:29;18.95;;;7.85;;